Time;durP1;ratioP1;P1;durP2;ratioP2;P2;SDS_P1;SDS_P2;PMS_P1;PMS_P2;Temp;Humidity;BMP_temperature;BMP_pressure;BME280_temperature;BME280_humidity;BME280_pressure;Samples;Min_cycle;Max_cycle;Signal;HPM_P1;HPM_P2
2020/12/06 00:00:57;;;;;;;30.55;20.60;;;3.90;99.90;;;;;;5055629;28;20048;-79
2020/12/06 00:03:24;;;;;;;30.98;20.60;;;3.90;99.90;;;;;;5054330;28;20049;-76
2020/12/06 00:05:51;;;;;;;30.15;19.60;;;3.90;99.90;;;;;;5055842;28;20053;-76
2020/12/06 00:08:17;;;;;;;30.90;20.50;;;3.90;99.90;;;;;;5052534;28;20080;-77
2020/12/06 00:10:44;;;;;;;32.42;21.25;;;4.00;99.90;;;;;;5053290;28;20128;-78
2020/12/06 00:13:10;;;;;;;32.40;21.02;;;4.00;99.90;;;;;;5053135;28;20072;-78
2020/12/06 00:15:36;;;;;;;31.58;20.40;;;4.00;99.90;;;;;;5053298;28;20087;-77
2020/12/06 00:18:03;;;;;;;30.45;20.88;;;4.00;99.90;;;;;;5055154;28;20136;-78
2020/12/06 00:20:31;;;;;;;33.92;21.67;;;4.10;99.90;;;;;;5052963;28;20098;-78
2020/12/06 00:22:57;;;;;;;32.10;21.80;;;4.10;99.90;;;;;;5052423;28;20049;-77
2020/12/06 00:25:24;;;;;;;32.40;21.30;;;4.10;99.90;;;;;;5052979;28;20076;-78
2020/12/06 00:27:51;;;;;;;34.47;21.75;;;4.10;99.90;;;;;;5052706;28;20049;-78
2020/12/06 00:30:17;;;;;;;32.90;21.60;;;4.10;99.90;;;;;;5052399;28;20103;-78
2020/12/06 00:32:43;;;;;;;31.73;21.65;;;4.00;99.90;;;;;;5052714;28;20057;-78
2020/12/06 00:35:10;;;;;;;31.60;21.13;;;4.10;99.90;;;;;;5052537;28;20159;-77
2020/12/06 00:37:39;;;;;;;33.63;22.02;;;4.10;99.90;;;;;;5052276;28;20084;-76
2020/12/06 00:40:06;;;;;;;31.25;20.20;;;4.00;99.90;;;;;;5051951;28;20546;-77
2020/12/06 00:42:33;;;;;;;32.97;21.63;;;4.00;99.90;;;;;;5052197;28;20092;-76
2020/12/06 00:44:59;;;;;;;33.47;21.35;;;4.00;99.90;;;;;;5052488;28;20136;-77
2020/12/06 00:47:25;;;;;;;33.75;21.15;;;4.00;99.90;;;;;;5052684;28;20080;-75
2020/12/06 00:49:52;;;;;;;30.95;20.58;;;4.00;99.90;;;;;;5052129;28;20102;-76
2020/12/06 00:52:18;;;;;;;31.38;20.77;;;4.00;99.90;;;;;;5052463;28;20148;-75
2020/12/06 00:54:45;;;;;;;31.77;20.75;;;4.00;99.90;;;;;;5052034;28;20135;-76
2020/12/06 00:57:12;;;;;;;34.78;21.48;;;4.00;99.90;;;;;;5051930;28;20131;-75
2020/12/06 00:59:38;;;;;;;32.95;21.52;;;4.00;99.90;;;;;;5051694;28;20128;-78
2020/12/06 01:02:06;;;;;;;35.47;21.73;;;4.00;99.90;;;;;;5052206;28;20080;-75
2020/12/06 01:04:32;;;;;;;33.08;21.35;;;4.00;99.90;;;;;;5052649;28;20057;-76
2020/12/06 01:06:59;;;;;;;34.25;22.02;;;4.00;99.90;;;;;;5052735;28;20517;-76
2020/12/06 01:09:26;;;;;;;35.33;22.17;;;4.00;99.90;;;;;;5053138;28;20056;-76
2020/12/06 01:11:54;;;;;;;33.83;22.27;;;4.00;99.90;;;;;;5053946;28;20068;-75
2020/12/06 01:14:21;;;;;;;34.85;21.58;;;4.00;99.90;;;;;;5053483;28;20049;-76
2020/12/06 01:16:50;;;;;;;30.60;21.40;;;4.00;99.90;;;;;;5052838;28;20048;-77
2020/12/06 01:19:17;;;;;;;35.42;22.58;;;4.00;99.90;;;;;;5053261;28;20049;-76
2020/12/06 01:21:48;;;;;;;37.10;23.45;;;4.00;99.90;;;;;;5052593;28;20455;-76
2020/12/06 01:24:14;;;;;;;35.72;22.88;;;3.90;99.90;;;;;;5052181;28;20099;-77
2020/12/06 01:26:41;;;;;;;36.45;22.65;;;3.90;99.90;;;;;;5051738;28;20084;-76
2020/12/06 01:29:08;;;;;;;37.42;23.05;;;3.90;99.90;;;;;;5051262;28;20056;-76
2020/12/06 01:31:34;;;;;;;38.47;23.73;;;3.90;99.90;;;;;;5051563;28;20080;-77
2020/12/06 01:34:01;;;;;;;38.00;23.30;;;3.80;99.90;;;;;;5051564;28;20324;-77
2020/12/06 01:36:27;;;;;;;36.33;22.63;;;3.80;99.90;;;;;;5051584;28;20080;-76
2020/12/06 01:38:54;;;;;;;32.85;21.90;;;3.80;99.90;;;;;;5051397;28;20095;-74
2020/12/06 01:41:20;;;;;;;34.85;22.23;;;3.80;99.90;;;;;;5051580;28;20212;-76
2020/12/06 01:43:54;;;;;;;41.00;22.17;;;3.80;99.90;;;;;;5051325;28;20554;-76
2020/12/06 01:46:22;;;;;;;34.53;21.88;;;3.80;99.90;;;;;;5051641;28;20045;-76
2020/12/06 01:48:49;;;;;;;37.15;22.92;;;3.80;99.90;;;;;;5051272;28;20430;-77
2020/12/06 01:51:17;;;;;;;40.10;24.05;;;3.80;99.90;;;;;;5049754;28;20128;-78
2020/12/06 01:53:44;;;;;;;38.25;23.83;;;3.70;99.90;;;;;;5051898;28;20088;-78
2020/12/06 01:56:10;;;;;;;38.00;24.42;;;3.70;99.90;;;;;;5055453;28;20475;-78
2020/12/06 01:58:38;;;;;;;38.80;24.17;;;3.60;99.90;;;;;;5057136;28;20506;-78
2020/12/06 02:01:04;;;;;;;39.53;24.15;;;3.60;99.90;;;;;;5055262;28;20132;-78
2020/12/06 02:03:31;;;;;;;37.08;22.55;;;3.60;99.90;;;;;;5052040;28;20068;-78
2020/12/06 02:05:58;;;;;;;36.78;23.38;;;3.60;99.90;;;;;;5055929;28;20419;-78
2020/12/06 02:08:24;;;;;;;36.90;24.77;;;3.60;99.90;;;;;;5055764;28;20132;-79
2020/12/06 02:10:51;;;;;;;38.53;23.98;;;3.60;99.90;;;;;;5051949;28;20120;-79
2020/12/06 02:13:20;;;;;;;37.58;23.05;;;3.50;99.90;;;;;;5056487;28;20095;-78
2020/12/06 02:15:46;;;;;;;37.95;23.67;;;3.60;99.90;;;;;;5055552;28;20084;-78
2020/12/06 02:18:13;;;;;;;37.95;24.13;;;3.60;99.90;;;;;;5056768;28;20414;-79
2020/12/06 02:20:40;;;;;;;36.88;24.08;;;3.60;99.90;;;;;;5061204;28;20080;-81
2020/12/06 02:23:06;;;;;;;41.80;24.05;;;3.60;99.90;;;;;;5059930;28;20111;-79
2020/12/06 02:25:35;;;;;;;38.90;24.40;;;3.60;99.90;;;;;;5063819;28;20073;-78
2020/12/06 02:28:01;;;;;;;39.75;24.70;;;3.60;99.90;;;;;;5058063;28;20067;-79
2020/12/06 02:30:28;;;;;;;41.03;25.63;;;3.50;99.90;;;;;;5057175;28;20065;-79
2020/12/06 02:32:54;;;;;;;42.97;25.60;;;3.40;99.90;;;;;;5057295;28;20084;-80
2020/12/06 02:35:21;;;;;;;40.13;24.42;;;3.40;99.90;;;;;;5057165;28;20599;-79
2020/12/06 02:37:49;;;;;;;37.40;24.75;;;3.40;99.90;;;;;;5058535;28;20085;-80
2020/12/06 02:40:15;;;;;;;44.30;26.52;;;3.40;99.90;;;;;;5061184;28;20087;-78
2020/12/06 02:42:42;;;;;;;39.70;24.75;;;3.40;99.90;;;;;;5063362;28;20088;-79
2020/12/06 02:45:08;;;;;;;36.55;24.63;;;3.50;99.90;;;;;;5058678;28;20045;-78
2020/12/06 02:47:35;;;;;;;40.55;24.40;;;3.60;99.90;;;;;;5058059;28;20080;-80
2020/12/06 02:50:02;;;;;;;41.08;26.75;;;3.50;99.90;;;;;;5057566;28;20522;-79
2020/12/06 02:52:29;;;;;;;40.45;26.10;;;3.50;99.90;;;;;;5056749;28;20140;-79
2020/12/06 02:54:56;;;;;;;41.33;25.85;;;3.50;99.90;;;;;;5057331;28;20055;-79
2020/12/06 02:57:23;;;;;;;40.88;26.30;;;3.50;99.90;;;;;;5057139;28;20605;-79
2020/12/06 02:59:49;;;;;;;37.78;24.90;;;3.60;99.90;;;;;;5056035;28;20474;-79
2020/12/06 03:02:16;;;;;;;37.35;24.30;;;3.70;99.90;;;;;;5055794;28;20243;-79
2020/12/06 03:04:42;;;;;;;39.45;24.27;;;3.70;99.90;;;;;;5055316;28;20080;-77
2020/12/06 03:07:08;;;;;;;37.30;25.08;;;3.80;99.90;;;;;;5054833;28;20084;-79
2020/12/06 03:09:35;;;;;;;38.63;24.45;;;3.80;99.90;;;;;;5054834;28;20084;-78
2020/12/06 03:12:02;;;;;;;37.97;25.17;;;3.90;99.90;;;;;;5055160;28;20587;-78
2020/12/06 03:14:28;;;;;;;37.90;24.38;;;3.80;99.90;;;;;;5056410;28;20132;-79
2020/12/06 03:16:55;;;;;;;37.35;24.48;;;3.80;99.90;;;;;;5055594;28;20140;-78
2020/12/06 03:19:21;;;;;;;38.35;23.55;;;3.90;99.90;;;;;;5055048;28;20081;-78
2020/12/06 03:21:47;;;;;;;37.75;23.83;;;3.90;99.90;;;;;;5054956;28;20049;-78
2020/12/06 03:24:14;;;;;;;36.03;24.17;;;3.90;99.90;;;;;;5054281;28;20137;-79
2020/12/06 03:26:40;;;;;;;39.20;24.63;;;4.00;99.90;;;;;;5054780;28;20073;-77
2020/12/06 03:29:07;;;;;;;34.40;23.20;;;4.00;99.90;;;;;;5053605;28;20049;-77
2020/12/06 03:31:34;;;;;;;36.22;23.48;;;4.00;99.90;;;;;;5055806;28;20069;-80
2020/12/06 03:34:00;;;;;;;40.95;25.30;;;4.00;99.90;;;;;;5056753;28;20136;-79
2020/12/06 03:36:26;;;;;;;36.00;24.05;;;4.00;99.90;;;;;;5054871;28;20132;-81
2020/12/06 03:38:53;;;;;;;34.55;22.40;;;4.00;99.90;;;;;;5054848;28;20085;-77
2020/12/06 03:41:19;;;;;;;33.35;22.27;;;4.00;99.90;;;;;;5054590;28;20138;-78
2020/12/06 03:43:45;;;;;;;31.17;21.35;;;4.00;99.90;;;;;;5054722;28;20053;-78
2020/12/06 03:46:13;;;;;;;35.42;23.02;;;4.00;99.90;;;;;;5054155;28;20088;-80
2020/12/06 03:48:39;;;;;;;39.67;23.92;;;4.00;99.90;;;;;;5056695;28;20487;-78
2020/12/06 03:51:06;;;;;;;38.58;23.90;;;4.10;99.90;;;;;;5054243;28;20129;-77
2020/12/06 03:53:32;;;;;;;37.42;23.23;;;4.00;99.90;;;;;;5054712;28;20088;-77
2020/12/06 03:55:58;;;;;;;37.70;23.58;;;3.80;99.90;;;;;;5054623;28;20080;-78
2020/12/06 03:58:25;;;;;;;32.38;21.58;;;3.80;99.90;;;;;;5053927;28;20084;-79
2020/12/06 04:00:51;;;;;;;35.38;21.73;;;3.80;99.90;;;;;;5054270;28;20085;-78
2020/12/06 04:03:18;;;;;;;33.20;21.23;;;3.80;99.90;;;;;;5054842;28;20080;-78
2020/12/06 04:05:45;;;;;;;29.70;19.95;;;3.70;99.90;;;;;;5054613;28;20467;-79
2020/12/06 04:08:11;;;;;;;32.67;20.40;;;3.70;99.90;;;;;;5054399;28;20523;-79
2020/12/06 04:10:37;;;;;;;32.50;20.98;;;3.70;99.90;;;;;;5082000;22;20541;-87
2020/12/06 04:13:04;;;;;;;28.70;19.38;;;3.60;99.90;;;;;;5059824;28;20106;-87
2020/12/06 04:15:30;;;;;;;30.95;19.45;;;3.70;99.90;;;;;;5059721;28;20218;-87
2020/12/06 04:17:57;;;;;;;29.45;19.38;;;3.70;99.90;;;;;;5058932;28;20056;-87
2020/12/06 04:20:24;;;;;;;28.20;19.25;;;3.70;99.90;;;;;;5060862;28;20098;-87
2020/12/06 04:22:50;;;;;;;31.52;20.02;;;3.70;99.90;;;;;;5060072;28;20068;-87
2020/12/06 04:25:17;;;;;;;31.58;20.17;;;3.80;99.90;;;;;;5059921;28;20052;-87
2020/12/06 04:27:43;;;;;;;33.22;20.52;;;3.80;99.90;;;;;;5060531;28;20053;-87
2020/12/06 04:30:09;;;;;;;31.50;20.08;;;3.70;99.90;;;;;;5057891;28;20073;-87
2020/12/06 04:32:36;;;;;;;30.25;19.52;;;3.80;99.90;;;;;;5059342;28;20072;-87
2020/12/06 04:35:02;;;;;;;33.22;19.63;;;3.70;99.90;;;;;;5059332;28;20088;-87
2020/12/06 04:37:30;;;;;;;33.67;20.90;;;3.70;99.90;;;;;;5059990;28;20048;-87
2020/12/06 04:39:56;;;;;;;31.88;20.02;;;3.70;99.90;;;;;;5060465;28;20052;-87
2020/12/06 04:42:24;;;;;;;32.92;20.17;;;3.70;99.90;;;;;;5059942;28;20508;-86
2020/12/06 04:44:51;;;;;;;30.42;19.67;;;3.70;99.90;;;;;;5060818;28;20052;-88
2020/12/06 04:47:26;;;;;;;29.83;19.48;;;3.80;99.90;;;;;;5074730;22;20053;-77
2020/12/06 04:50:03;;;;;;;31.55;20.17;;;3.90;99.90;;;;;;5054625;28;20507;-78
2020/12/06 04:52:43;;;;;;;31.90;20.08;;;3.90;99.90;;;;;;5055190;28;20112;-78
2020/12/06 04:55:12;;;;;;;32.08;20.98;;;4.00;99.90;;;;;;5070588;28;20405;-78
2020/12/06 04:57:39;;;;;;;32.92;20.10;;;4.00;99.90;;;;;;5079670;28;20467;-79
2020/12/06 05:00:08;;;;;;;33.30;21.02;;;4.00;99.90;;;;;;5078622;28;20076;-79
2020/12/06 05:02:38;;;;;;;32.03;21.45;;;4.00;99.90;;;;;;5080321;22;20075;-79
2020/12/06 05:05:06;;;;;;;34.35;21.10;;;4.00;99.90;;;;;;5055307;28;20044;-77
2020/12/06 05:07:34;;;;;;;37.47;22.90;;;4.00;99.90;;;;;;5051351;28;20049;-77
2020/12/06 05:10:00;;;;;;;36.90;23.83;;;4.00;99.90;;;;;;5050801;28;20091;-78
2020/12/06 05:12:27;;;;;;;33.03;22.35;;;4.00;99.90;;;;;;5050991;28;20084;-77
2020/12/06 05:14:53;;;;;;;37.53;22.67;;;4.00;99.90;;;;;;5050928;28;20053;-78
2020/12/06 05:17:20;;;;;;;35.80;22.70;;;4.00;99.90;;;;;;5051210;28;20080;-78
2020/12/06 05:19:47;;;;;;;36.30;23.58;;;4.00;99.90;;;;;;5050868;28;20084;-78
2020/12/06 05:22:13;;;;;;;34.40;22.35;;;4.00;99.90;;;;;;5051017;28;20049;-77
2020/12/06 05:24:42;;;;;;;33.88;22.02;;;4.00;99.90;;;;;;5051354;28;20078;-78
2020/12/06 05:27:09;;;;;;;34.78;22.27;;;4.10;99.90;;;;;;5050950;28;20045;-76
2020/12/06 05:29:40;;;;;;;31.35;20.17;;;4.10;99.90;;;;;;5051466;28;20537;-78
2020/12/06 05:32:08;;;;;;;33.83;21.20;;;4.10;99.90;;;;;;5058059;28;20124;-79
2020/12/06 05:34:34;;;;;;;31.85;21.48;;;4.00;99.90;;;;;;5059642;28;20053;-79
2020/12/06 05:37:05;;;;;;;35.10;22.83;;;4.00;99.90;;;;;;5058231;28;20140;-78
2020/12/06 05:39:32;;;;;;;35.15;22.85;;;4.00;99.90;;;;;;5058494;28;20056;-78
2020/12/06 05:42:00;;;;;;;35.28;22.42;;;3.90;99.90;;;;;;5057784;28;20546;-78
2020/12/06 05:44:26;;;;;;;34.78;21.95;;;3.90;99.90;;;;;;5057728;28;20075;-78
2020/12/06 05:46:53;;;;;;;36.60;22.98;;;3.90;99.90;;;;;;5058094;28;20136;-78
2020/12/06 05:49:23;;;;;;;37.17;23.33;;;3.90;99.90;;;;;;5058389;28;20049;-78
2020/12/06 05:51:51;;;;;;;36.30;24.58;;;3.90;99.90;;;;;;5058800;28;20045;-78
2020/12/06 05:54:23;;;;;;;39.65;24.00;;;3.80;99.90;;;;;;5058554;28;20060;-78
2020/12/06 05:56:53;;;;;;;36.97;23.42;;;3.90;99.90;;;;;;5058999;28;20048;-78
2020/12/06 05:59:22;;;;;;;37.22;23.15;;;3.90;99.90;;;;;;5058067;28;20091;-78
2020/12/06 06:01:52;;;;;;;34.65;22.63;;;4.00;99.90;;;;;;5057403;28;20048;-78
2020/12/06 06:04:22;;;;;;;35.92;22.67;;;4.10;99.90;;;;;;5060241;28;20048;-77
2020/12/06 06:06:51;;;;;;;38.40;23.10;;;4.10;99.90;;;;;;5058511;28;20068;-78
2020/12/06 06:09:19;;;;;;;33.25;22.40;;;4.20;99.90;;;;;;5056288;28;20049;-78
2020/12/06 06:11:55;;;;;;;36.13;23.15;;;4.20;99.90;;;;;;5057590;28;20055;-77
2020/12/06 06:14:23;;;;;;;33.42;22.15;;;4.20;99.90;;;;;;5058019;28;20049;-78
2020/12/06 06:16:51;;;;;;;36.67;23.75;;;4.20;99.90;;;;;;5058936;28;20051;-77
2020/12/06 06:19:22;;;;;;;33.10;22.45;;;4.30;99.90;;;;;;5060429;28;20052;-77
2020/12/06 06:21:50;;;;;;;35.08;23.10;;;4.30;99.90;;;;;;5058176;28;20045;-78
2020/12/06 06:24:22;;;;;;;33.90;22.40;;;4.30;99.90;;;;;;5060374;28;20095;-78
2020/12/06 06:26:50;;;;;;;36.63;22.42;;;4.30;99.90;;;;;;5060321;28;20081;-78
2020/12/06 06:29:18;;;;;;;37.25;23.40;;;4.30;99.90;;;;;;5059981;28;20094;-78
2020/12/06 06:31:48;;;;;;;35.33;23.10;;;4.40;99.90;;;;;;5057720;28;20084;-78
2020/12/06 06:34:16;;;;;;;37.72;23.50;;;4.40;99.90;;;;;;5057593;28;20128;-78
2020/12/06 06:36:44;;;;;;;33.85;22.67;;;4.40;99.90;;;;;;5057364;28;20084;-77
2020/12/06 06:39:11;;;;;;;34.35;22.58;;;4.40;99.90;;;;;;5055585;28;20108;-78
2020/12/06 06:41:38;;;;;;;35.45;22.88;;;4.40;99.90;;;;;;5054538;28;20514;-78
2020/12/06 06:44:05;;;;;;;36.70;23.45;;;4.40;99.90;;;;;;5052941;28;20084;-78
2020/12/06 06:46:32;;;;;;;34.20;22.80;;;4.40;99.90;;;;;;5055370;28;20244;-78
2020/12/06 06:49:08;;;;;;;36.25;22.98;;;4.30;99.90;;;;;;5054035;28;20515;-77
2020/12/06 06:51:35;;;;;;;35.55;24.10;;;4.20;99.90;;;;;;5055068;28;20045;-78
2020/12/06 06:54:06;;;;;;;36.38;24.92;;;4.10;99.90;;;;;;5054613;28;20131;-78
2020/12/06 06:56:48;;;;;;;38.15;25.23;;;4.10;99.90;;;;;;5054720;28;20128;-77
2020/12/06 06:59:15;;;;;;;36.50;24.02;;;4.00;99.90;;;;;;5056314;28;20049;-78
2020/12/06 07:01:48;;;;;;;37.67;24.38;;;3.90;99.90;;;;;;5055425;28;20505;-78
2020/12/06 07:04:20;;;;;;;35.80;23.73;;;3.80;99.90;;;;;;5054193;28;20085;-77
2020/12/06 07:06:51;;;;;;;35.03;22.80;;;3.80;99.90;;;;;;5052198;28;20085;-77
2020/12/06 07:09:22;;;;;;;37.00;24.10;;;3.80;99.90;;;;;;5052112;28;20139;-77
2020/12/06 07:11:49;;;;;;;35.83;23.80;;;3.70;99.90;;;;;;5053535;28;20132;-78
2020/12/06 07:14:16;;;;;;;39.47;23.65;;;3.70;99.90;;;;;;5052879;28;20049;-77
2020/12/06 07:16:43;;;;;;;36.03;23.02;;;3.70;99.90;;;;;;5054177;28;20136;-78
2020/12/06 07:19:09;;;;;;;36.42;24.15;;;3.60;99.90;;;;;;5052164;28;20114;-77
2020/12/06 07:21:37;;;;;;;36.03;23.75;;;3.60;99.90;;;;;;5051912;28;20124;-77
2020/12/06 07:24:04;;;;;;;37.63;23.27;;;3.50;99.90;;;;;;5055830;28;20128;-78
2020/12/06 07:26:32;;;;;;;36.78;23.38;;;3.60;99.90;;;;;;5056330;28;20499;-78
2020/12/06 07:28:59;;;;;;;39.35;24.42;;;3.60;99.90;;;;;;5054463;28;20059;-79
2020/12/06 07:31:27;;;;;;;39.88;24.63;;;3.60;99.90;;;;;;5056740;28;20072;-78
2020/12/06 07:33:54;;;;;;;39.53;24.95;;;3.60;99.90;;;;;;5057300;28;20192;-78
2020/12/06 07:36:21;;;;;;;35.35;24.10;;;3.60;99.90;;;;;;5057525;28;20128;-78
2020/12/06 07:38:48;;;;;;;35.05;23.10;;;3.70;99.90;;;;;;5064380;28;20087;-79
2020/12/06 07:41:14;;;;;;;35.95;23.40;;;3.70;99.90;;;;;;5065036;28;20139;-78
2020/12/06 07:43:41;;;;;;;36.25;23.35;;;3.80;99.90;;;;;;5055540;28;20128;-79
2020/12/06 07:46:18;;;;;;;36.53;23.38;;;3.90;99.90;;;;;;5057670;28;20064;-79
2020/12/06 07:48:45;;;;;;;35.95;22.98;;;3.90;99.90;;;;;;5057784;28;20399;-79
2020/12/06 07:51:12;;;;;;;35.13;22.95;;;3.90;99.90;;;;;;5056193;28;20469;-78
2020/12/06 07:53:46;;;;;;;36.83;22.38;;;3.90;99.90;;;;;;5058201;28;20064;-78
2020/12/06 07:56:17;;;;;;;35.28;22.63;;;4.00;99.90;;;;;;5053229;28;20068;-79
2020/12/06 07:58:54;;;;;;;34.20;22.75;;;4.10;99.90;;;;;;5052247;28;20053;-78
2020/12/06 08:01:21;;;;;;;35.72;23.77;;;4.10;99.90;;;;;;5052428;28;20076;-78
2020/12/06 08:03:52;;;;;;;34.58;22.92;;;4.20;99.90;;;;;;5052619;28;20152;-78
2020/12/06 08:06:21;;;;;;;35.47;22.95;;;4.30;99.90;;;;;;5052178;28;20128;-79
2020/12/06 08:08:51;;;;;;;35.03;21.92;;;4.30;99.90;;;;;;5052100;28;20134;-78
2020/12/06 08:11:20;;;;;;;35.92;22.70;;;4.30;99.90;;;;;;5052471;28;20088;-78
2020/12/06 08:13:50;;;;;;;31.67;21.98;;;4.30;99.90;;;;;;5054212;28;20052;-79
2020/12/06 08:16:18;;;;;;;34.88;22.45;;;4.40;99.90;;;;;;5053397;28;20518;-79
2020/12/06 08:18:44;;;;;;;35.30;23.30;;;4.50;99.90;;;;;;5056540;28;20052;-80
2020/12/06 08:21:11;;;;;;;35.03;22.30;;;4.50;99.90;;;;;;5056938;28;20112;-80
2020/12/06 08:23:39;;;;;;;32.85;22.05;;;4.50;99.90;;;;;;5059389;28;20566;-80
2020/12/06 08:26:06;;;;;;;31.88;21.90;;;4.30;99.90;;;;;;5058328;28;20049;-79
2020/12/06 08:28:34;;;;;;;30.13;21.02;;;4.30;99.90;;;;;;5056430;28;20055;-79
2020/12/06 08:31:00;;;;;;;34.70;22.67;;;4.20;99.90;;;;;;5054448;28;20128;-78
2020/12/06 08:33:28;;;;;;;32.72;21.42;;;4.20;99.90;;;;;;5053743;28;20107;-78
2020/12/06 08:35:56;;;;;;;31.13;21.50;;;4.20;99.90;;;;;;5054104;28;20095;-78
2020/12/06 08:38:24;;;;;;;35.58;21.95;;;4.20;99.90;;;;;;5054692;28;20055;-78
2020/12/06 08:41:02;;;;;;;31.30;20.63;;;4.20;99.90;;;;;;5054053;28;20045;-78
2020/12/06 08:43:46;;;;;;;31.58;20.23;;;4.30;99.90;;;;;;5053852;28;20095;-77
2020/12/06 08:46:14;;;;;;;35.17;20.85;;;4.30;99.90;;;;;;5054514;28;20084;-78
2020/12/06 08:48:41;;;;;;;31.67;21.08;;;4.30;99.90;;;;;;5055599;28;20056;-79
2020/12/06 08:51:22;;;;;;;32.20;21.15;;;4.30;99.90;;;;;;5056584;28;20075;-79
2020/12/06 08:53:50;;;;;;;33.55;22.15;;;4.40;99.90;;;;;;5058026;28;20084;-79
2020/12/06 08:56:30;;;;;;;30.60;20.77;;;4.40;99.90;;;;;;5059723;28;20060;-80
2020/12/06 08:59:01;;;;;;;35.28;21.15;;;4.50;99.90;;;;;;5059474;28;20057;-80
2020/12/06 09:01:28;;;;;;;35.08;22.25;;;4.50;99.90;;;;;;5059451;28;20538;-80
2020/12/06 09:03:55;;;;;;;34.55;23.25;;;4.60;99.90;;;;;;5060238;28;20060;-80
2020/12/06 09:06:21;;;;;;;38.08;23.40;;;4.60;99.90;;;;;;5059621;28;20076;-80
2020/12/06 09:08:48;;;;;;;34.55;21.83;;;4.70;99.90;;;;;;5058813;28;20059;-80
2020/12/06 09:11:16;;;;;;;32.65;22.08;;;4.80;99.90;;;;;;5058855;28;20092;-80
2020/12/06 09:13:42;;;;;;;31.55;21.05;;;4.80;99.90;;;;;;5058757;28;20092;-80
2020/12/06 09:16:09;;;;;;;34.92;22.50;;;4.90;99.90;;;;;;5058860;28;20100;-80
2020/12/06 09:18:37;;;;;;;31.70;21.02;;;5.00;99.90;;;;;;5047239;28;20075;-79
2020/12/06 09:21:04;;;;;;;30.83;20.08;;;5.10;99.90;;;;;;5055087;28;20048;-80
2020/12/06 09:23:31;;;;;;;31.77;20.13;;;5.10;99.90;;;;;;5060441;28;20106;-79
2020/12/06 09:25:59;;;;;;;27.80;19.80;;;5.20;99.90;;;;;;5058625;28;20056;-79
2020/12/06 09:28:26;;;;;;;27.50;19.70;;;5.20;99.90;;;;;;5064072;28;20079;-79
2020/12/06 09:30:54;;;;;;;26.33;19.05;;;5.30;99.90;;;;;;5069050;28;20045;-80
2020/12/06 09:33:22;;;;;;;26.33;18.50;;;5.30;99.90;;;;;;5059366;28;20045;-80
2020/12/06 09:35:49;;;;;;;25.58;18.98;;;5.30;99.90;;;;;;5067820;28;20053;-80
2020/12/06 09:38:16;;;;;;;29.42;20.60;;;5.40;99.90;;;;;;5068018;28;20053;-80
2020/12/06 09:40:43;;;;;;;29.67;19.88;;;5.40;99.90;;;;;;5060628;28;20095;-79
2020/12/06 09:43:10;;;;;;;27.98;19.65;;;5.40;99.90;;;;;;5057444;28;20056;-80
2020/12/06 09:45:37;;;;;;;27.35;19.08;;;5.50;99.90;;;;;;5055862;28;20115;-79
2020/12/06 09:48:03;;;;;;;28.90;18.77;;;5.50;99.90;;;;;;5056953;28;20045;-79
2020/12/06 09:50:31;;;;;;;29.23;20.25;;;5.50;99.90;;;;;;5055048;28;20057;-79
2020/12/06 09:52:57;;;;;;;27.05;19.65;;;5.60;99.90;;;;;;5055458;28;20076;-80
2020/12/06 09:55:24;;;;;;;27.15;18.55;;;5.60;99.90;;;;;;5059004;28;20135;-80
2020/12/06 09:57:50;;;;;;;26.65;18.52;;;5.60;99.90;;;;;;5056466;28;20064;-79
2020/12/06 10:00:17;;;;;;;26.48;18.40;;;5.60;99.90;;;;;;5060483;28;20212;-79
2020/12/06 10:02:44;;;;;;;28.48;20.23;;;5.70;99.90;;;;;;5066160;28;20079;-79
2020/12/06 10:05:13;;;;;;;25.80;17.85;;;5.70;99.90;;;;;;5066551;28;20128;-79
2020/12/06 10:07:41;;;;;;;24.63;18.45;;;5.70;99.90;;;;;;5065672;28;20503;-79
2020/12/06 10:10:08;;;;;;;25.10;18.73;;;5.70;99.90;;;;;;5063464;28;20060;-79
2020/12/06 10:12:35;;;;;;;27.15;18.70;;;5.70;99.90;;;;;;5063182;28;20053;-79
2020/12/06 10:15:03;;;;;;;25.63;18.88;;;5.80;99.90;;;;;;5064225;28;20048;-78
2020/12/06 10:17:30;;;;;;;26.23;18.92;;;5.80;99.90;;;;;;5064744;28;20060;-79
2020/12/06 10:19:57;;;;;;;26.13;18.63;;;5.90;99.90;;;;;;5063970;28;20049;-79
2020/12/06 10:22:23;;;;;;;24.67;18.63;;;6.00;99.90;;;;;;5067639;28;20045;-79
2020/12/06 10:24:50;;;;;;;27.65;18.80;;;6.10;99.90;;;;;;5063560;28;20049;-78
2020/12/06 10:27:17;;;;;;;26.05;18.65;;;6.10;99.90;;;;;;5060623;28;20072;-78
2020/12/06 10:29:43;;;;;;;24.70;18.45;;;6.10;99.90;;;;;;5062931;28;20045;-79
2020/12/06 10:32:10;;;;;;;25.42;18.95;;;6.20;99.90;;;;;;5069767;28;20585;-79
2020/12/06 10:34:37;;;;;;;27.42;18.98;;;6.20;99.90;;;;;;5069094;28;20052;-79
2020/12/06 10:37:03;;;;;;;25.27;18.20;;;6.20;99.90;;;;;;5068426;28;20053;-79
2020/12/06 10:39:30;;;;;;;30.60;18.23;;;6.20;99.90;;;;;;5067897;28;20131;-78
2020/12/06 10:41:57;;;;;;;24.20;18.25;;;6.10;99.90;;;;;;5067885;28;20084;-78
2020/12/06 10:44:25;;;;;;;29.08;20.35;;;6.10;99.90;;;;;;5067147;28;20076;-79
2020/12/06 10:46:52;;;;;;;27.15;19.25;;;6.10;99.90;;;;;;5067292;28;20176;-79
2020/12/06 10:49:21;;;;;;;27.20;18.58;;;6.10;99.90;;;;;;5064485;28;20056;-79
2020/12/06 10:51:48;;;;;;;25.90;17.95;;;6.10;99.90;;;;;;5065459;28;20060;-79
2020/12/06 10:54:15;;;;;;;24.17;17.65;;;6.10;99.90;;;;;;5064776;28;20079;-79
2020/12/06 10:56:43;;;;;;;28.70;19.02;;;6.10;99.90;;;;;;5066033;28;20053;-79
2020/12/06 10:59:11;;;;;;;24.30;18.40;;;6.20;99.90;;;;;;5068905;28;20531;-79
2020/12/06 11:01:37;;;;;;;24.13;17.58;;;6.20;99.90;;;;;;5149879;22;20054;-77
2020/12/06 11:04:05;;;;;;;22.63;16.75;;;6.30;99.90;;;;;;5052754;28;20080;-77
2020/12/06 11:06:32;;;;;;;23.00;16.83;;;6.40;99.90;;;;;;5058200;28;20107;-78
2020/12/06 11:09:02;;;;;;;25.83;18.27;;;6.50;99.90;;;;;;5059682;28;20064;-79
2020/12/06 11:11:28;;;;;;;23.92;17.40;;;6.50;99.90;;;;;;5059710;28;20049;-78
2020/12/06 11:13:54;;;;;;;24.85;17.70;;;6.50;99.90;;;;;;5055719;28;20144;-77
2020/12/06 11:16:23;;;;;;;24.35;18.48;;;6.50;99.90;;;;;;5055581;28;20076;-77
2020/12/06 11:18:51;;;;;;;25.13;18.83;;;6.60;99.90;;;;;;5054284;28;20099;-77
2020/12/06 11:21:19;;;;;;;30.55;22.30;;;6.50;99.90;;;;;;5053779;28;20099;-77
2020/12/06 11:23:47;;;;;;;27.63;20.17;;;6.60;99.90;;;;;;5054006;28;20092;-76
2020/12/06 11:26:13;;;;;;;27.05;20.75;;;6.60;99.90;;;;;;5053906;28;20137;-76
2020/12/06 11:28:40;;;;;;;25.25;18.17;;;6.60;99.90;;;;;;5058408;28;20091;-77
2020/12/06 11:31:11;;;;;;;24.92;17.27;;;6.60;99.90;;;;;;5054391;28;20128;-79
2020/12/06 11:33:54;;;;;;;24.52;19.75;;;6.60;99.90;;;;;;5061846;28;20060;-79
2020/12/06 11:36:20;;;;;;;26.30;19.80;;;6.60;99.90;;;;;;5056606;28;20053;-77
2020/12/06 11:38:47;;;;;;;25.90;20.38;;;6.50;99.90;;;;;;5060509;28;20056;-80
2020/12/06 11:41:13;;;;;;;25.65;18.45;;;6.50;99.90;;;;;;5053377;28;20080;-77
2020/12/06 11:43:39;;;;;;;29.17;20.48;;;6.40;99.90;;;;;;5053151;28;20135;-77
2020/12/06 11:46:06;;;;;;;28.40;20.45;;;6.40;99.90;;;;;;5053510;28;20474;-78
2020/12/06 11:48:32;;;;;;;30.73;21.83;;;6.30;99.90;;;;;;5052914;28;20079;-77
2020/12/06 11:50:59;;;;;;;27.70;20.38;;;6.30;99.90;;;;;;5053241;28;20132;-78
2020/12/06 11:53:26;;;;;;;28.85;20.33;;;6.20;99.90;;;;;;5052948;28;20137;-77
2020/12/06 11:55:52;;;;;;;27.45;20.33;;;6.20;99.90;;;;;;5056225;28;20112;-81
2020/12/06 11:58:18;;;;;;;27.08;19.42;;;6.20;99.90;;;;;;5052806;28;20128;-77
2020/12/06 12:00:45;;;;;;;30.17;21.10;;;6.20;99.90;;;;;;5053118;28;20127;-77
2020/12/06 12:03:11;;;;;;;29.67;21.02;;;6.20;99.90;;;;;;5052578;28;20128;-77
2020/12/06 12:05:37;;;;;;;29.23;21.10;;;6.20;99.90;;;;;;5052770;28;20092;-77
2020/12/06 12:08:05;;;;;;;33.70;21.90;;;6.10;99.90;;;;;;5052722;28;20482;-78
2020/12/06 12:10:33;;;;;;;32.47;21.58;;;6.10;99.90;;;;;;5053476;28;20551;-77
2020/12/06 12:12:59;;;;;;;32.33;22.00;;;6.10;99.90;;;;;;5052811;28;20049;-78
2020/12/06 12:15:26;;;;;;;30.95;22.17;;;6.10;99.90;;;;;;5052998;28;20053;-77
2020/12/06 12:17:52;;;;;;;32.22;23.73;;;6.10;99.90;;;;;;5052608;28;20135;-77
2020/12/06 12:20:18;;;;;;;34.45;23.15;;;6.20;99.90;;;;;;5052439;28;20156;-77
2020/12/06 12:22:45;;;;;;;34.20;24.63;;;6.20;99.90;;;;;;5052876;28;20045;-78
2020/12/06 12:25:12;;;;;;;31.67;23.02;;;6.10;99.90;;;;;;5052240;28;20099;-79
2020/12/06 12:27:38;;;;;;;38.55;24.73;;;6.10;99.90;;;;;;5052078;28;20122;-77
2020/12/06 12:30:05;;;;;;;32.58;22.92;;;6.10;99.90;;;;;;5049718;28;20124;-77
2020/12/06 12:32:32;;;;;;;31.98;21.80;;;6.10;99.90;;;;;;5033525;28;20134;-77
2020/12/06 12:34:58;;;;;;;33.78;22.42;;;6.00;99.90;;;;;;5041692;28;20136;-77
2020/12/06 12:37:24;;;;;;;34.45;23.33;;;6.00;99.90;;;;;;5037905;28;20083;-76